sensor_id;sensor_type;location;lat;lon;timestamp;pressure;altitude;pressure_sealevel;temperature;humidity
54144;BME280;40050;47.324;18.792;2022-08-30T00:00:31;1005.18;;;23.87;64.89
54144;BME280;40050;47.324;18.792;2022-08-30T00:02:32;1005.17;;;23.86;64.99
54144;BME280;40050;47.324;18.792;2022-08-30T00:04:33;1005.16;;;23.83;65.07
54144;BME280;40050;47.324;18.792;2022-08-30T00:06:34;1005.17;;;23.81;65.15
54144;BME280;40050;47.324;18.792;2022-08-30T00:08:35;1005.19;;;23.78;65.24
54144;BME280;40050;47.324;18.792;2022-08-30T00:10:37;1005.18;;;23.74;65.32
54144;BME280;40050;47.324;18.792;2022-08-30T00:12:38;1005.17;;;23.69;65.40
54144;BME280;40050;47.324;18.792;2022-08-30T00:14:39;1005.20;;;23.67;65.51
54144;BME280;40050;47.324;18.792;2022-08-30T00:16:40;1005.18;;;23.66;65.58
54144;BME280;40050;47.324;18.792;2022-08-30T00:18:41;1005.18;;;23.65;65.61
54144;BME280;40050;47.324;18.792;2022-08-30T00:20:42;1005.23;;;23.63;65.73
54144;BME280;40050;47.324;18.792;2022-08-30T00:22:44;1005.28;;;23.61;65.72
54144;BME280;40050;47.324;18.792;2022-08-30T00:24:45;1005.24;;;23.59;65.79
54144;BME280;40050;47.324;18.792;2022-08-30T00:26:45;1005.27;;;23.58;65.81
54144;BME280;40050;47.324;18.792;2022-08-30T00:28:46;1005.27;;;23.58;65.90
54144;BME280;40050;47.324;18.792;2022-08-30T00:30:47;1005.35;;;23.58;66.06
54144;BME280;40050;47.324;18.792;2022-08-30T00:32:48;1005.32;;;23.56;66.06
54144;BME280;40050;47.324;18.792;2022-08-30T00:34:50;1005.29;;;23.54;66.13
54144;BME280;40050;47.324;18.792;2022-08-30T00:36:51;1005.31;;;23.51;66.24
54144;BME280;40050;47.324;18.792;2022-08-30T00:38:52;1005.28;;;23.47;66.31
54144;BME280;40050;47.324;18.792;2022-08-30T00:40:53;1005.31;;;23.46;66.40
54144;BME280;40050;47.324;18.792;2022-08-30T00:42:55;1005.30;;;23.45;66.42
54144;BME280;40050;47.324;18.792;2022-08-30T00:44:56;1005.29;;;23.38;66.40
54144;BME280;40050;47.324;18.792;2022-08-30T00:46:57;1005.33;;;23.39;66.44
54144;BME280;40050;47.324;18.792;2022-08-30T00:48:59;1005.27;;;23.35;66.50
54144;BME280;40050;47.324;18.792;2022-08-30T00:51:03;1005.24;;;23.34;66.49
54144;BME280;40050;47.324;18.792;2022-08-30T00:53:06;1005.27;;;23.35;66.52
54144;BME280;40050;47.324;18.792;2022-08-30T00:55:08;1005.26;;;23.31;66.54
54144;BME280;40050;47.324;18.792;2022-08-30T00:57:10;1005.21;;;23.31;66.49
54144;BME280;40050;47.324;18.792;2022-08-30T00:59:11;1005.25;;;23.26;66.58
54144;BME280;40050;47.324;18.792;2022-08-30T01:01:12;1005.28;;;23.21;66.72
54144;BME280;40050;47.324;18.792;2022-08-30T01:03:14;1005.24;;;23.19;66.88
54144;BME280;40050;47.324;18.792;2022-08-30T01:05:15;1005.27;;;23.19;66.89
54144;BME280;40050;47.324;18.792;2022-08-30T01:07:16;1005.21;;;23.19;66.92
54144;BME280;40050;47.324;18.792;2022-08-30T01:09:17;1005.23;;;23.18;66.99
54144;BME280;40050;47.324;18.792;2022-08-30T01:11:19;1005.23;;;23.17;67.05
54144;BME280;40050;47.324;18.792;2022-08-30T01:13:21;1005.23;;;23.16;67.08
54144;BME280;40050;47.324;18.792;2022-08-30T01:15:22;1005.19;;;23.14;67.16
54144;BME280;40050;47.324;18.792;2022-08-30T01:17:23;1005.17;;;23.11;67.20
54144;BME280;40050;47.324;18.792;2022-08-30T01:19:33;1005.15;;;23.08;67.21
54144;BME280;40050;47.324;18.792;2022-08-30T01:21:41;1005.16;;;23.09;67.30
54144;BME280;40050;47.324;18.792;2022-08-30T01:23:47;1005.17;;;23.05;67.30
54144;BME280;40050;47.324;18.792;2022-08-30T01:25:48;1005.15;;;23.03;67.39
54144;BME280;40050;47.324;18.792;2022-08-30T01:27:54;1005.19;;;23.04;67.34
54144;BME280;40050;47.324;18.792;2022-08-30T01:29:57;1005.20;;;23.01;67.46
54144;BME280;40050;47.324;18.792;2022-08-30T01:31:58;1005.22;;;23.03;67.47
54144;BME280;40050;47.324;18.792;2022-08-30T01:34:00;1005.19;;;23.02;67.52
54144;BME280;40050;47.324;18.792;2022-08-30T01:36:02;1005.19;;;22.98;67.57
54144;BME280;40050;47.324;18.792;2022-08-30T01:38:03;1005.19;;;22.98;67.58
54144;BME280;40050;47.324;18.792;2022-08-30T01:40:05;1005.21;;;22.99;67.64
54144;BME280;40050;47.324;18.792;2022-08-30T01:42:06;1005.21;;;22.98;67.67
54144;BME280;40050;47.324;18.792;2022-08-30T01:44:08;1005.20;;;22.96;67.70
54144;BME280;40050;47.324;18.792;2022-08-30T01:46:10;1005.12;;;22.92;67.67
54144;BME280;40050;47.324;18.792;2022-08-30T01:48:11;1005.13;;;22.92;67.74
54144;BME280;40050;47.324;18.792;2022-08-30T01:50:12;1005.13;;;22.90;67.72
54144;BME280;40050;47.324;18.792;2022-08-30T01:52:13;1005.07;;;22.87;67.70
54144;BME280;40050;47.324;18.792;2022-08-30T01:54:15;1005.06;;;22.86;67.77
54144;BME280;40050;47.324;18.792;2022-08-30T01:56:15;1005.06;;;22.86;67.81
54144;BME280;40050;47.324;18.792;2022-08-30T01:58:16;1005.10;;;22.86;67.86
54144;BME280;40050;47.324;18.792;2022-08-30T02:00:17;1005.12;;;22.85;67.88
54144;BME280;40050;47.324;18.792;2022-08-30T02:02:19;1005.14;;;22.84;67.88
54144;BME280;40050;47.324;18.792;2022-08-30T02:04:21;1005.13;;;22.82;67.83
54144;BME280;40050;47.324;18.792;2022-08-30T02:06:22;1005.12;;;22.81;67.84
54144;BME280;40050;47.324;18.792;2022-08-30T02:08:23;1005.03;;;22.77;67.89
54144;BME280;40050;47.324;18.792;2022-08-30T02:10:24;1005.07;;;22.77;67.93
54144;BME280;40050;47.324;18.792;2022-08-30T02:12:25;1005.06;;;22.77;67.91
54144;BME280;40050;47.324;18.792;2022-08-30T02:14:26;1005.05;;;22.74;67.96
54144;BME280;40050;47.324;18.792;2022-08-30T02:16:27;1005.09;;;22.74;67.99
54144;BME280;40050;47.324;18.792;2022-08-30T02:18:28;1005.05;;;22.73;67.99
54144;BME280;40050;47.324;18.792;2022-08-30T02:20:29;1005.06;;;22.71;68.02
54144;BME280;40050;47.324;18.792;2022-08-30T02:22:30;1005.08;;;22.71;68.00
54144;BME280;40050;47.324;18.792;2022-08-30T02:24:31;1005.08;;;22.69;68.03
54144;BME280;40050;47.324;18.792;2022-08-30T02:26:32;1005.11;;;22.68;68.12
54144;BME280;40050;47.324;18.792;2022-08-30T02:28:33;1005.09;;;22.64;68.16
54144;BME280;40050;47.324;18.792;2022-08-30T02:30:34;1005.10;;;22.66;68.16
54144;BME280;40050;47.324;18.792;2022-08-30T02:32:35;1005.09;;;22.66;68.21
54144;BME280;40050;47.324;18.792;2022-08-30T02:34:36;1005.09;;;22.65;68.16
54144;BME280;40050;47.324;18.792;2022-08-30T02:36:37;1005.13;;;22.65;68.19
54144;BME280;40050;47.324;18.792;2022-08-30T02:38:38;1005.12;;;22.63;68.15
54144;BME280;40050;47.324;18.792;2022-08-30T02:40:39;1005.07;;;22.60;68.08
54144;BME280;40050;47.324;18.792;2022-08-30T02:42:40;1005.07;;;22.59;68.13
54144;BME280;40050;47.324;18.792;2022-08-30T02:44:41;1005.12;;;22.60;68.12
54144;BME280;40050;47.324;18.792;2022-08-30T02:46:42;1005.13;;;22.57;68.11
54144;BME280;40050;47.324;18.792;2022-08-30T02:48:43;1005.10;;;22.55;68.22
54144;BME280;40050;47.324;18.792;2022-08-30T02:50:45;1005.12;;;22.55;68.22
54144;BME280;40050;47.324;18.792;2022-08-30T02:52:46;1005.05;;;22.48;68.34
54144;BME280;40050;47.324;18.792;2022-08-30T02:54:47;1005.08;;;22.48;68.47
54144;BME280;40050;47.324;18.792;2022-08-30T02:56:48;1005.06;;;22.47;68.52
54144;BME280;40050;47.324;18.792;2022-08-30T02:58:49;1005.01;;;22.45;68.52
54144;BME280;40050;47.324;18.792;2022-08-30T03:00:50;1005.00;;;22.44;68.51
54144;BME280;40050;47.324;18.792;2022-08-30T03:02:51;1004.98;;;22.43;68.51
54144;BME280;40050;47.324;18.792;2022-08-30T03:04:52;1005.00;;;22.43;68.53
54144;BME280;40050;47.324;18.792;2022-08-30T03:06:53;1005.00;;;22.40;68.51
54144;BME280;40050;47.324;18.792;2022-08-30T03:08:54;1005.06;;;22.40;68.51
54144;BME280;40050;47.324;18.792;2022-08-30T03:10:55;1005.08;;;22.40;68.64
54144;BME280;40050;47.324;18.792;2022-08-30T03:12:56;1005.11;;;22.38;68.60
54144;BME280;40050;47.324;18.792;2022-08-30T03:14:57;1005.11;;;22.39;68.53
54144;BME280;40050;47.324;18.792;2022-08-30T03:16:58;1005.18;;;22.40;68.57
54144;BME280;40050;47.324;18.792;2022-08-30T03:18:59;1005.14;;;22.38;68.57
54144;BME280;40050;47.324;18.792;2022-08-30T03:21:00;1005.11;;;22.38;68.65
54144;BME280;40050;47.324;18.792;2022-08-30T03:23:01;1005.12;;;22.35;68.66
54144;BME280;40050;47.324;18.792;2022-08-30T03:25:03;1005.13;;;22.35;68.83
54144;BME280;40050;47.324;18.792;2022-08-30T03:27:04;1005.19;;;22.35;68.88
54144;BME280;40050;47.324;18.792;2022-08-30T03:29:05;1005.20;;;22.34;68.81
54144;BME280;40050;47.324;18.792;2022-08-30T03:31:06;1005.20;;;22.32;68.69
54144;BME280;40050;47.324;18.792;2022-08-30T03:33:07;1005.25;;;22.30;68.58
54144;BME280;40050;47.324;18.792;2022-08-30T03:35:08;1005.24;;;22.28;68.55
54144;BME280;40050;47.324;18.792;2022-08-30T03:37:09;1005.28;;;22.30;68.55
54144;BME280;40050;47.324;18.792;2022-08-30T03:39:09;1005.33;;;22.26;68.70
54144;BME280;40050;47.324;18.792;2022-08-30T03:41:10;1005.38;;;22.27;68.74
54144;BME280;40050;47.324;18.792;2022-08-30T03:43:11;1005.40;;;22.27;68.82
54144;BME280;40050;47.324;18.792;2022-08-30T03:45:13;1005.39;;;22.24;68.99
54144;BME280;40050;47.324;18.792;2022-08-30T03:47:14;1005.37;;;22.23;69.12
54144;BME280;40050;47.324;18.792;2022-08-30T03:49:16;1005.40;;;22.24;69.14
54144;BME280;40050;47.324;18.792;2022-08-30T03:51:17;1005.39;;;22.24;69.13
54144;BME280;40050;47.324;18.792;2022-08-30T03:53:18;1005.40;;;22.24;69.06
54144;BME280;40050;47.324;18.792;2022-08-30T03:55:19;1005.43;;;22.27;68.89
54144;BME280;40050;47.324;18.792;2022-08-30T03:57:20;1005.39;;;22.27;68.94
54144;BME280;40050;47.324;18.792;2022-08-30T03:59:22;1005.45;;;22.29;68.95
54144;BME280;40050;47.324;18.792;2022-08-30T04:01:23;1005.48;;;22.29;68.89
54144;BME280;40050;47.324;18.792;2022-08-30T04:03:24;1005.46;;;22.29;68.89
54144;BME280;40050;47.324;18.792;2022-08-30T04:05:25;1005.48;;;22.29;68.93
54144;BME280;40050;47.324;18.792;2022-08-30T04:07:26;1005.51;;;22.28;69.02
54144;BME280;40050;47.324;18.792;2022-08-30T04:09:27;1005.53;;;22.26;69.09
54144;BME280;40050;47.324;18.792;2022-08-30T04:11:28;1005.58;;;22.25;69.12
54144;BME280;40050;47.324;18.792;2022-08-30T04:13:28;1005.61;;;22.24;68.84
54144;BME280;40050;47.324;18.792;2022-08-30T04:15:29;1005.62;;;22.21;68.65
54144;BME280;40050;47.324;18.792;2022-08-30T04:17:30;1005.68;;;22.19;68.53
54144;BME280;40050;47.324;18.792;2022-08-30T04:19:31;1005.62;;;22.14;68.51
54144;BME280;40050;47.324;18.792;2022-08-30T04:21:32;1005.70;;;22.13;68.49
54144;BME280;40050;47.324;18.792;2022-08-30T04:23:33;1005.70;;;22.12;68.65
54144;BME280;40050;47.324;18.792;2022-08-30T04:25:37;1005.74;;;22.11;68.72
54144;BME280;40050;47.324;18.792;2022-08-30T04:27:38;1005.80;;;22.11;68.89
54144;BME280;40050;47.324;18.792;2022-08-30T04:29:39;1005.81;;;22.09;69.06
54144;BME280;40050;47.324;18.792;2022-08-30T04:31:40;1005.83;;;22.08;69.17
54144;BME280;40050;47.324;18.792;2022-08-30T04:33:41;1005.91;;;22.09;69.32
54144;BME280;40050;47.324;18.792;2022-08-30T04:35:43;1005.90;;;22.09;69.52
54144;BME280;40050;47.324;18.792;2022-08-30T04:37:44;1005.93;;;22.08;69.64
54144;BME280;40050;47.324;18.792;2022-08-30T04:39:45;1006.02;;;22.10;69.71
54144;BME280;40050;47.324;18.792;2022-08-30T04:41:46;1005.98;;;22.09;69.96
54144;BME280;40050;47.324;18.792;2022-08-30T04:43:47;1006.04;;;22.12;70.10
54144;BME280;40050;47.324;18.792;2022-08-30T04:45:48;1006.02;;;22.14;70.23
54144;BME280;40050;47.324;18.792;2022-08-30T04:47:49;1006.03;;;22.13;70.37
54144;BME280;40050;47.324;18.792;2022-08-30T04:49:50;1006.03;;;22.18;70.44
54144;BME280;40050;47.324;18.792;2022-08-30T04:51:51;1006.07;;;22.20;70.72
54144;BME280;40050;47.324;18.792;2022-08-30T04:53:52;1006.10;;;22.23;70.79
54144;BME280;40050;47.324;18.792;2022-08-30T04:55:53;1006.08;;;22.25;70.90
54144;BME280;40050;47.324;18.792;2022-08-30T04:57:54;1006.09;;;22.27;71.04
54144;BME280;40050;47.324;18.792;2022-08-30T04:59:55;1006.10;;;22.31;71.24
54144;BME280;40050;47.324;18.792;2022-08-30T05:01:56;1006.14;;;22.32;71.29
54144;BME280;40050;47.324;18.792;2022-08-30T05:03:57;1006.15;;;22.34;71.25
54144;BME280;40050;47.324;18.792;2022-08-30T05:05:58;1006.19;;;22.38;71.16
54144;BME280;40050;47.324;18.792;2022-08-30T05:07:59;1006.19;;;22.40;71.17
54144;BME280;40050;47.324;18.792;2022-08-30T05:10:00;1006.21;;;22.46;70.96
54144;BME280;40050;47.324;18.792;2022-08-30T05:12:01;1006.25;;;22.45;71.08
54144;BME280;40050;47.324;18.792;2022-08-30T05:14:02;1006.24;;;22.46;71.22
54144;BME280;40050;47.324;18.792;2022-08-30T05:16:04;1006.22;;;22.49;71.41
54144;BME280;40050;47.324;18.792;2022-08-30T05:18:05;1006.23;;;22.55;71.44
54144;BME280;40050;47.324;18.792;2022-08-30T05:20:08;1006.23;;;22.58;71.47
54144;BME280;40050;47.324;18.792;2022-08-30T05:22:09;1006.24;;;22.63;71.42
54144;BME280;40050;47.324;18.792;2022-08-30T05:24:10;1006.24;;;22.68;71.44
54144;BME280;40050;47.324;18.792;2022-08-30T05:26:15;1006.25;;;22.74;71.45
54144;BME280;40050;47.324;18.792;2022-08-30T05:28:16;1006.24;;;22.78;71.41
54144;BME280;40050;47.324;18.792;2022-08-30T05:30:17;1006.25;;;22.80;71.41
54144;BME280;40050;47.324;18.792;2022-08-30T05:32:18;1006.21;;;22.88;71.41
54144;BME280;40050;47.324;18.792;2022-08-30T05:34:19;1006.20;;;22.94;71.76
54144;BME280;40050;47.324;18.792;2022-08-30T05:36:22;1006.26;;;23.05;71.33
54144;BME280;40050;47.324;18.792;2022-08-30T05:38:24;1006.24;;;23.11;70.90
54144;BME280;40050;47.324;18.792;2022-08-30T05:40:25;1006.24;;;23.20;70.90
54144;BME280;40050;47.324;18.792;2022-08-30T05:42:26;1006.26;;;23.27;69.47
54144;BME280;40050;47.324;18.792;2022-08-30T05:44:27;1006.16;;;23.29;69.63
54144;BME280;40050;47.324;18.792;2022-08-30T05:46:29;1006.30;;;23.47;69.51
54144;BME280;40050;47.324;18.792;2022-08-30T05:48:30;1006.31;;;23.57;68.23
54144;BME280;40050;47.324;18.792;2022-08-30T05:50:31;1006.28;;;23.67;66.32
54144;BME280;40050;47.324;18.792;2022-08-30T05:52:36;1006.31;;;23.71;65.64
54144;BME280;40050;47.324;18.792;2022-08-30T05:54:37;1006.30;;;23.79;65.57
54144;BME280;40050;47.324;18.792;2022-08-30T05:56:38;1006.32;;;23.87;65.19
54144;BME280;40050;47.324;18.792;2022-08-30T05:58:40;1006.30;;;23.90;63.26
54144;BME280;40050;47.324;18.792;2022-08-30T06:00:41;1006.33;;;23.98;63.25
54144;BME280;40050;47.324;18.792;2022-08-30T06:02:42;1006.36;;;24.07;61.83
54144;BME280;40050;47.324;18.792;2022-08-30T06:04:43;1006.34;;;24.12;61.59
54144;BME280;40050;47.324;18.792;2022-08-30T06:06:44;1006.34;;;24.18;62.83
54144;BME280;40050;47.324;18.792;2022-08-30T06:08:45;1006.37;;;24.27;61.78
54144;BME280;40050;47.324;18.792;2022-08-30T06:10:46;1006.41;;;24.36;60.97
54144;BME280;40050;47.324;18.792;2022-08-30T06:12:47;1006.36;;;24.45;58.84
54144;BME280;40050;47.324;18.792;2022-08-30T06:14:47;1006.38;;;24.54;58.04
54144;BME280;40050;47.324;18.792;2022-08-30T06:16:49;1006.41;;;24.57;57.08
54144;BME280;40050;47.324;18.792;2022-08-30T06:18:50;1006.40;;;24.58;57.00
54144;BME280;40050;47.324;18.792;2022-08-30T06:20:51;1006.40;;;24.69;56.05
54144;BME280;40050;47.324;18.792;2022-08-30T06:22:52;1006.39;;;24.75;57.36
54144;BME280;40050;47.324;18.792;2022-08-30T06:24:53;1006.39;;;24.88;56.91
54144;BME280;40050;47.324;18.792;2022-08-30T06:26:54;1006.41;;;25.05;56.74
54144;BME280;40050;47.324;18.792;2022-08-30T06:28:55;1006.37;;;25.22;55.70
54144;BME280;40050;47.324;18.792;2022-08-30T06:30:56;1006.40;;;25.33;55.19
54144;BME280;40050;47.324;18.792;2022-08-30T06:32:57;1006.43;;;25.47;55.08
54144;BME280;40050;47.324;18.792;2022-08-30T06:34:59;1006.44;;;25.67;54.20
54144;BME280;40050;47.324;18.792;2022-08-30T06:37:00;1006.39;;;25.76;53.18
54144;BME280;40050;47.324;18.792;2022-08-30T06:39:01;1006.38;;;25.86;53.28
54144;BME280;40050;47.324;18.792;2022-08-30T06:41:05;1006.48;;;25.95;52.82
54144;BME280;40050;47.324;18.792;2022-08-30T06:43:06;1006.46;;;25.97;52.98
54144;BME280;40050;47.324;18.792;2022-08-30T06:45:08;1006.46;;;26.05;53.54
54144;BME280;40050;47.324;18.792;2022-08-30T06:47:09;1006.52;;;26.16;53.40
54144;BME280;40050;47.324;18.792;2022-08-30T06:49:10;1006.44;;;26.22;52.62
54144;BME280;40050;47.324;18.792;2022-08-30T06:51:11;1006.48;;;26.33;52.51
54144;BME280;40050;47.324;18.792;2022-08-30T06:53:12;1006.42;;;26.36;52.76
54144;BME280;40050;47.324;18.792;2022-08-30T06:55:13;1006.49;;;26.44;52.40
54144;BME280;40050;47.324;18.792;2022-08-30T06:57:15;1006.54;;;26.53;51.33
54144;BME280;40050;47.324;18.792;2022-08-30T06:59:16;1006.57;;;26.61;50.81
54144;BME280;40050;47.324;18.792;2022-08-30T07:01:18;1006.56;;;26.68;50.22
54144;BME280;40050;47.324;18.792;2022-08-30T07:03:19;1006.56;;;26.72;50.19
54144;BME280;40050;47.324;18.792;2022-08-30T07:05:20;1006.57;;;26.80;49.68
54144;BME280;40050;47.324;18.792;2022-08-30T07:07:21;1006.62;;;26.94;50.50
54144;BME280;40050;47.324;18.792;2022-08-30T07:09:22;1006.71;;;27.13;50.42
54144;BME280;40050;47.324;18.792;2022-08-30T07:11:25;1006.71;;;27.22;49.46
54144;BME280;40050;47.324;18.792;2022-08-30T07:13:26;1006.71;;;27.29;48.71
54144;BME280;40050;47.324;18.792;2022-08-30T07:15:27;1006.72;;;27.41;48.98
54144;BME280;40050;47.324;18.792;2022-08-30T07:17:28;1006.67;;;27.54;47.97
54144;BME280;40050;47.324;18.792;2022-08-30T07:19:28;1006.69;;;27.64;48.62
54144;BME280;40050;47.324;18.792;2022-08-30T07:21:34;1006.70;;;27.77;47.35
54144;BME280;40050;47.324;18.792;2022-08-30T07:23:35;1006.68;;;27.81;47.72
54144;BME280;40050;47.324;18.792;2022-08-30T07:25:36;1006.74;;;27.88;46.69
54144;BME280;40050;47.324;18.792;2022-08-30T07:27:38;1006.72;;;27.85;46.28
54144;BME280;40050;47.324;18.792;2022-08-30T07:29:39;1006.80;;;27.89;47.10
54144;BME280;40050;47.324;18.792;2022-08-30T07:31:40;1006.80;;;27.93;46.44
54144;BME280;40050;47.324;18.792;2022-08-30T07:33:41;1006.84;;;27.93;46.09
54144;BME280;40050;47.324;18.792;2022-08-30T07:35:42;1006.79;;;27.92;45.78
54144;BME280;40050;47.324;18.792;2022-08-30T07:37:43;1006.84;;;27.99;46.28
54144;BME280;40050;47.324;18.792;2022-08-30T07:39:44;1006.81;;;28.03;45.51
54144;BME280;40050;47.324;18.792;2022-08-30T07:41:45;1006.77;;;28.08;45.74
54144;BME280;40050;47.324;18.792;2022-08-30T07:43:46;1006.77;;;28.11;45.03
54144;BME280;40050;47.324;18.792;2022-08-30T07:45:47;1006.74;;;28.17;44.61
54144;BME280;40050;47.324;18.792;2022-08-30T07:47:48;1006.73;;;28.36;45.00
54144;BME280;40050;47.324;18.792;2022-08-30T07:49:49;1006.74;;;28.54;44.79
54144;BME280;40050;47.324;18.792;2022-08-30T07:51:50;1006.71;;;28.58;43.58
54144;BME280;40050;47.324;18.792;2022-08-30T07:53:51;1006.66;;;28.63;44.09
54144;BME280;40050;47.324;18.792;2022-08-30T07:55:53;1006.73;;;28.78;44.48
54144;BME280;40050;47.324;18.792;2022-08-30T07:57:54;1006.70;;;28.88;43.58
54144;BME280;40050;47.324;18.792;2022-08-30T07:59:55;1006.70;;;28.97;43.15
54144;BME280;40050;47.324;18.792;2022-08-30T08:01:56;1006.70;;;29.01;43.24
54144;BME280;40050;47.324;18.792;2022-08-30T08:03:57;1006.71;;;29.02;42.40
54144;BME280;40050;47.324;18.792;2022-08-30T08:05:59;1006.74;;;29.13;43.85
54144;BME280;40050;47.324;18.792;2022-08-30T08:08:01;1006.72;;;29.23;43.99
54144;BME280;40050;47.324;18.792;2022-08-30T08:10:02;1006.69;;;29.32;42.65
54144;BME280;40050;47.324;18.792;2022-08-30T08:12:04;1006.70;;;29.28;42.30
54144;BME280;40050;47.324;18.792;2022-08-30T08:14:05;1006.75;;;29.22;42.23
54144;BME280;40050;47.324;18.792;2022-08-30T08:16:06;1006.75;;;29.24;43.00
54144;BME280;40050;47.324;18.792;2022-08-30T08:18:07;1006.78;;;29.34;42.09
54144;BME280;40050;47.324;18.792;2022-08-30T08:20:08;1006.75;;;29.33;41.98
54144;BME280;40050;47.324;18.792;2022-08-30T08:22:10;1006.77;;;29.33;41.27
54144;BME280;40050;47.324;18.792;2022-08-30T08:24:11;1006.76;;;29.30;40.92
54144;BME280;40050;47.324;18.792;2022-08-30T08:26:12;1006.72;;;29.36;41.39
54144;BME280;40050;47.324;18.792;2022-08-30T08:28:13;1006.74;;;29.45;42.12
54144;BME280;40050;47.324;18.792;2022-08-30T08:30:14;1006.76;;;29.60;41.17
54144;BME280;40050;47.324;18.792;2022-08-30T08:32:15;1006.77;;;29.72;41.56
54144;BME280;40050;47.324;18.792;2022-08-30T08:34:16;1006.74;;;29.90;41.22
54144;BME280;40050;47.324;18.792;2022-08-30T08:36:16;1006.78;;;30.04;40.78
54144;BME280;40050;47.324;18.792;2022-08-30T08:38:18;1006.82;;;30.14;40.18
54144;BME280;40050;47.324;18.792;2022-08-30T08:40:18;1006.75;;;30.20;39.88
54144;BME280;40050;47.324;18.792;2022-08-30T08:47:14;1006.76;;;30.65;39.44
54144;BME280;40050;47.324;18.792;2022-08-30T08:49:16;1006.73;;;30.89;39.33
54144;BME280;40050;47.324;18.792;2022-08-30T08:51:18;1006.77;;;30.98;38.63
54144;BME280;40050;47.324;18.792;2022-08-30T08:53:20;1006.75;;;30.98;38.35
54144;BME280;40050;47.324;18.792;2022-08-30T08:55:26;1006.72;;;31.02;38.09
54144;BME280;40050;47.324;18.792;2022-08-30T08:57:30;1006.74;;;30.73;39.03
54144;BME280;40050;47.324;18.792;2022-08-30T08:59:33;1006.73;;;30.84;38.24
54144;BME280;40050;47.324;18.792;2022-08-30T09:01:34;1006.74;;;30.87;38.25
54144;BME280;40050;47.324;18.792;2022-08-30T09:03:35;1006.73;;;30.89;38.87
54144;BME280;40050;47.324;18.792;2022-08-30T09:05:36;1006.69;;;31.02;38.10
54144;BME280;40050;47.324;18.792;2022-08-30T09:07:39;1006.66;;;31.17;37.83
54144;BME280;40050;47.324;18.792;2022-08-30T09:09:41;1006.60;;;31.34;37.96
54144;BME280;40050;47.324;18.792;2022-08-30T09:11:42;1006.56;;;31.39;37.70
54144;BME280;40050;47.324;18.792;2022-08-30T09:13:46;1006.59;;;31.53;37.91
54144;BME280;40050;47.324;18.792;2022-08-30T09:15:47;1006.60;;;31.67;37.96
54144;BME280;40050;47.324;18.792;2022-08-30T09:17:52;1006.54;;;31.81;37.36
54144;BME280;40050;47.324;18.792;2022-08-30T09:19:57;1006.52;;;32.02;37.45
54144;BME280;40050;47.324;18.792;2022-08-30T09:22:03;1006.49;;;31.97;36.39
54144;BME280;40050;47.324;18.792;2022-08-30T09:24:04;1006.47;;;31.94;36.47
54144;BME280;40050;47.324;18.792;2022-08-30T09:26:06;1006.44;;;31.96;36.17
54144;BME280;40050;47.324;18.792;2022-08-30T09:28:10;1006.44;;;32.03;35.92
54144;BME280;40050;47.324;18.792;2022-08-30T09:30:16;1006.42;;;32.02;36.09
54144;BME280;40050;47.324;18.792;2022-08-30T09:34:40;1006.45;;;32.20;36.55
54144;BME280;40050;47.324;18.792;2022-08-30T09:36:44;1006.41;;;32.37;36.58
54144;BME280;40050;47.324;18.792;2022-08-30T09:38:45;1006.43;;;32.45;35.50
54144;BME280;40050;47.324;18.792;2022-08-30T09:40:57;1006.37;;;32.47;35.53
54144;BME280;40050;47.324;18.792;2022-08-30T09:43:08;1006.36;;;32.46;36.15
54144;BME280;40050;47.324;18.792;2022-08-30T09:45:16;1006.34;;;32.53;36.45
54144;BME280;40050;47.324;18.792;2022-08-30T09:47:21;1006.36;;;32.58;35.09
54144;BME280;40050;47.324;18.792;2022-08-30T09:49:30;1006.29;;;32.51;35.41
54144;BME280;40050;47.324;18.792;2022-08-30T09:51:51;1006.29;;;32.33;36.05
54144;BME280;40050;47.324;18.792;2022-08-30T09:54:05;1006.27;;;32.13;35.35
54144;BME280;40050;47.324;18.792;2022-08-30T09:56:21;1006.20;;;32.03;35.68
54144;BME280;40050;47.324;18.792;2022-08-30T10:00:42;1006.15;;;31.77;35.90
54144;BME280;40050;47.324;18.792;2022-08-30T10:02:55;1006.16;;;31.62;36.54
54144;BME280;40050;47.324;18.792;2022-08-30T10:05:09;1006.18;;;31.69;36.98
54144;BME280;40050;47.324;18.792;2022-08-30T10:07:13;1006.15;;;31.78;37.52
54144;BME280;40050;47.324;18.792;2022-08-30T10:09:23;1006.16;;;31.91;38.11
54144;BME280;40050;47.324;18.792;2022-08-30T10:11:31;1006.15;;;32.05;37.51
54144;BME280;40050;47.324;18.792;2022-08-30T10:16:24;1006.15;;;32.14;38.08
54144;BME280;40050;47.324;18.792;2022-08-30T10:20:54;1006.13;;;32.06;38.16
54144;BME280;40050;47.324;18.792;2022-08-30T10:22:49;1005.90;;;31.91;36.68
54144;BME280;40050;47.324;18.792;2022-08-30T10:24:54;1006.05;;;32.03;36.38
54144;BME280;40050;47.324;18.792;2022-08-30T10:26:56;1006.09;;;32.01;37.40
54144;BME280;40050;47.324;18.792;2022-08-30T10:29:05;1006.05;;;32.04;36.94
54144;BME280;40050;47.324;18.792;2022-08-30T10:31:09;1006.05;;;31.96;36.59
54144;BME280;40050;47.324;18.792;2022-08-30T10:33:14;1006.00;;;31.90;36.47
54144;BME280;40050;47.324;18.792;2022-08-30T10:35:17;1006.03;;;31.95;36.83
54144;BME280;40050;47.324;18.792;2022-08-30T10:37:22;1005.96;;;31.93;36.51
54144;BME280;40050;47.324;18.792;2022-08-30T10:39:24;1005.88;;;31.95;36.44
54144;BME280;40050;47.324;18.792;2022-08-30T10:44:42;1005.82;;;32.03;37.06
54144;BME280;40050;47.324;18.792;2022-08-30T10:46:02;1005.81;;;32.07;37.08
54144;BME280;40050;47.324;18.792;2022-08-30T10:48:13;1005.81;;;32.19;37.54
54144;BME280;40050;47.324;18.792;2022-08-30T10:50:17;1005.81;;;32.28;37.61
54144;BME280;40050;47.324;18.792;2022-08-30T10:56:49;1005.73;;;32.38;36.91
54144;BME280;40050;47.324;18.792;2022-08-30T10:58:51;1005.71;;;32.46;36.43
54144;BME280;40050;47.324;18.792;2022-08-30T11:00:55;1005.64;;;32.43;36.25
54144;BME280;40050;47.324;18.792;2022-08-30T11:03:22;1005.71;;;32.46;37.14
54144;BME280;40050;47.324;18.792;2022-08-30T11:05:28;1005.67;;;32.49;36.43
54144;BME280;40050;47.324;18.792;2022-08-30T11:07:36;1005.69;;;32.68;36.75